^^
Station Historical Data
Daily Summary for September 20, 2017 Units:  English    Metric   Both
« Previous Day
Next Day »
Daily Weekly Monthly Yearly Custom
  High: Low: Average:
Temperature: 76.5 °F 67.4 °F 71.9 °F
Dew Point: 67.4 °F 63.9 °F 65.6 °F
Humidity: 89% 73% 81%
Wind Speed: 5.0mph 0.0mph 2.2mph
Wind Gust: 17.0mph - -
Wind- - WNW
Pressure: 29.94 in 29.83 in -
Precipitation: 0.00 in    
Historical Graphs
 
 
Tabular Data for September 20, 2017
Time Temperature Dew Point Pressure Wind Wind Speed Wind Gust Humidity Rainfall Rate (Hourly) Conditions
00:00 68.9 °F 64.9 °F 29.88 in NW 5.0 mph 10.0 mph 87% 0.00 in RA
00:15 69.2 °F 65.2 °F 29.87 in NNW 2.0 mph 9.0 mph 87% 0.00 in BKN
00:30 69.1 °F 64.7 °F 29.87 in WNW 3.0 mph 9.0 mph 86% 0.00 in BKN
00:45 68.9 °F 64.9 °F 29.88 in WNW 2.0 mph 8.0 mph 87% 0.00 in BKN
01:00 68.8 °F 64.8 °F 29.87 in WNW 2.0 mph 8.0 mph 87% 0.00 in BKN
01:15 68.7 °F 64.7 °F 29.88 in NNW 2.0 mph 8.0 mph 87% 0.00 in SCT
01:30 68.7 °F 64.4 °F 29.87 in NW 2.0 mph 9.0 mph 86% 0.00 in SCT
01:45 68.6 °F 64.6 °F 29.87 in NW 1.0 mph 9.0 mph 87% 0.00 in SCT
02:00 68.4 °F 64.4 °F 29.86 in NW 2.0 mph 6.0 mph 87% 0.00 in SCT
02:15 68.4 °F 64.4 °F 29.86 in WNW 2.0 mph 10.0 mph 87% 0.00 in BKN
02:30 68.4 °F 64.7 °F 29.85 in NW 5.0 mph 9.0 mph 88% 0.00 in BKN
02:45 68.7 °F 64.7 °F 29.85 in NW 3.0 mph 7.0 mph 87% 0.00 in BKN
03:00 69.0 °F 64.6 °F 29.84 in NW 2.0 mph 13.0 mph 86% 0.00 in BKN
03:30 69.1 °F 64.7 °F 29.83 in NNW 3.0 mph 9.0 mph 86% 0.00 in BKN
03:45 69.1 °F 64.7 °F 29.83 in Calm   9.0 mph 86% 0.00 in BKN
04:00 68.9 °F 64.5 °F 29.83 in NNW 2.0 mph 8.0 mph 86% 0.00 in BKN
04:15 68.9 °F 64.5 °F 29.83 in NW 3.0 mph 8.0 mph 86% 0.00 in SCT
04:30 68.6 °F 64.6 °F 29.83 in North 2.0 mph 8.0 mph 87% 0.00 in SCT
05:00 68.2 °F 64.5 °F 29.83 in NW 1.0 mph 7.0 mph 88% 0.00 in SCT
05:15 68.1 °F 64.4 °F 29.84 in NW 1.0 mph 8.0 mph 88% 0.00 in FEW
05:30 67.8 °F 64.1 °F 29.84 in NW 2.0 mph 8.0 mph 88% 0.00 in FEW
05:45 67.7 °F 64.0 °F 29.84 in NW 1.0 mph 8.0 mph 88% 0.00 in FEW
06:00 67.6 °F 63.9 °F 29.84 in NNW 3.0 mph 5.0 mph 88% 0.00 in FEW
06:30 67.4 °F 64.0 °F 29.85 in NW 1.0 mph 9.0 mph 89% 0.00 in SCT
06:45 67.4 °F 64.0 °F 29.85 in NNW 3.0 mph 10.0 mph 89% 0.00 in SCT
07:00 67.6 °F 63.9 °F 29.85 in North 2.0 mph 10.0 mph 88% 0.00 in SCT
07:15 67.7 °F 64.0 °F 29.86 in NW 2.0 mph 7.0 mph 88% 0.00 in BKN
07:30 68.0 °F 64.3 °F 29.86 in NW 1.0 mph 10.0 mph 88% 0.00 in BKN
07:45 68.4 °F 64.4 °F 29.86 in NNW 2.0 mph 17.0 mph 87% 0.00 in BKN
08:00 68.5 °F 64.5 °F 29.87 in NNW 3.0 mph 9.0 mph 87% 0.00 in BKN
08:15 68.8 °F 64.4 °F 29.87 in NNW 2.0 mph 10.0 mph 86% 0.00 in SCT
08:30 69.4 °F 65.0 °F 29.87 in North 2.0 mph 12.0 mph 86% 0.00 in SCT
08:45 69.6 °F 64.9 °F 29.88 in NNW 3.0 mph 13.0 mph 85% 0.00 in SCT
09:00 69.7 °F 65.0 °F 29.89 in North 2.0 mph 9.0 mph 85% 0.00 in SCT
09:15 69.8 °F 65.0 °F 29.89 in NNW 1.0 mph 8.0 mph 85% 0.00 in BKN
09:30 70.1 °F 65.4 °F 29.89 in NNW 2.0 mph 12.0 mph 85% 0.00 in BKN
09:45 70.6 °F 65.5 °F 29.89 in NNW 1.0 mph 9.0 mph 84% 0.00 in BKN
10:00 71.2 °F 65.8 °F 29.89 in NW 2.0 mph 9.0 mph 83% 0.00 in BKN
10:15 72.5 °F 66.7 °F 29.89 in Calm   12.0 mph 82% 0.00 in BKN
10:30 73.9 °F 66.9 °F 29.89 in NNW 5.0 mph 12.0 mph 79% 0.00 in BKN
10:45 74.1 °F 66.8 °F 29.89 in NNW 3.0 mph 12.0 mph 78% 0.00 in BKN
11:00 73.6 °F 66.7 °F 29.88 in NNW 2.0 mph 8.0 mph 79% 0.00 in BKN
11:15 74.2 °F 66.9 °F 29.89 in NW 2.0 mph 8.0 mph 78% 0.00 in BKN
11:30 74.2 °F 67.3 °F 29.89 in NW 2.0 mph 6.0 mph 79% 0.00 in BKN
11:45 74.1 °F 66.8 °F 29.89 in NNW 3.0 mph 12.0 mph 78% 0.00 in BKN
12:00 74.7 °F 67.4 °F 29.89 in NW 2.0 mph 7.0 mph 78% 0.00 in BKN
12:15 75.2 °F 67.1 °F 29.89 in NNW 2.0 mph 12.0 mph 76% 0.00 in BKN
12:30 75.7 °F 67.2 °F 29.89 in NNW 5.0 mph 12.0 mph 75% 0.00 in BKN
12:45 75.1 °F 66.6 °F 29.89 in North 5.0 mph 14.0 mph 75% 0.00 in BKN
13:15 75.7 °F 67.2 °F 29.89 in NW 2.0 mph 10.0 mph 75% 0.00 in BKN
13:30 76.2 °F 67.3 °F 29.88 in North 3.0 mph 11.0 mph 74% 0.00 in BKN
13:45 75.7 °F 66.8 °F 29.89 in NNW 3.0 mph 12.0 mph 74% 0.00 in BKN
14:00 75.8 °F 66.6 °F 29.89 in NW 5.0 mph 10.0 mph 73% 0.00 in BKN
14:15 76.0 °F 67.1 °F 29.88 in North 2.0 mph 12.0 mph 74% 0.00 in BKN
14:30 76.5 °F 67.2 °F 29.88 in NNW 2.0 mph 7.0 mph 73% 0.00 in BKN
14:45 76.0 °F 66.7 °F 29.88 in NNE 3.0 mph 10.0 mph 73% 0.00 in BKN
15:00 75.8 °F 66.9 °F 29.88 in North 1.0 mph 12.0 mph 74% 0.00 in BKN
15:15 75.4 °F 66.9 °F 29.88 in North 2.0 mph 10.0 mph 75% 0.00 in BKN
15:30 75.3 °F 66.8 °F 29.89 in North 5.0 mph 12.0 mph 75% 0.00 in BKN
15:45 75.3 °F 66.8 °F 29.88 in North 5.0 mph 10.0 mph 75% 0.00 in BKN
16:00 75.6 °F 66.7 °F 29.88 in NNW 5.0 mph 9.0 mph 74% 0.00 in BKN
16:15 75.8 °F 67.3 °F 29.89 in North 2.0 mph 10.0 mph 75% 0.00 in BKN
16:30 76.0 °F 67.1 °F 29.89 in NW 2.0 mph 12.0 mph 74% 0.00 in BKN
16:45 75.9 °F 67.0 °F 29.89 in NNW 2.0 mph 10.0 mph 74% 0.00 in BKN
17:00 75.8 °F 66.9 °F 29.90 in NNW 2.0 mph 12.0 mph 74% 0.00 in BKN
17:15 75.7 °F 66.8 °F 29.90 in North 5.0 mph 10.0 mph 74% 0.00 in BKN
17:30 76.0 °F 67.1 °F 29.90 in North 2.0 mph 7.0 mph 74% 0.00 in BKN
17:45 76.3 °F 67.0 °F 29.91 in Calm   12.0 mph 73% 0.00 in BKN
18:00 76.0 °F 66.7 °F 29.91 in NNW 3.0 mph 9.0 mph 73% 0.00 in BKN
18:15 75.4 °F 66.5 °F 29.90 in NW 2.0 mph 12.0 mph 74% 0.00 in BKN
18:30 75.0 °F 66.5 °F 29.91 in NW 1.0 mph 6.0 mph 75% 0.00 in BKN
18:45 74.8 °F 66.3 °F 29.91 in NW 5.0 mph 10.0 mph 75% 0.00 in BKN
19:00 74.2 °F 66.1 °F 29.91 in NNW 3.0 mph 9.0 mph 76% 0.00 in BKN
19:15 73.9 °F 65.9 °F 29.91 in NW 2.0 mph 9.0 mph 76% 0.00 in BKN
19:30 73.7 °F 65.7 °F 29.91 in NW 3.0 mph 7.0 mph 76% 0.00 in BKN
19:45 73.5 °F 65.5 °F 29.91 in NNW 1.0 mph 6.0 mph 76% 0.00 in BKN
20:00 73.2 °F 65.6 °F 29.92 in NNW 2.0 mph 7.0 mph 77% 0.00 in BKN
20:15 72.9 °F 65.6 °F 29.92 in NNW 2.0 mph 5.0 mph 78% 0.00 in CLR
20:30 72.6 °F 65.3 °F 29.92 in NNW 1.0 mph 6.0 mph 78% 0.00 in CLR
20:45 72.4 °F 65.5 °F 29.92 in Calm   4.0 mph 79% 0.00 in CLR
21:00 72.1 °F 65.2 °F 29.93 in Calm   4.0 mph 79% 0.00 in CLR
21:15 72.0 °F 65.1 °F 29.93 in NNW 1.0 mph 6.0 mph 79% 0.00 in CLR
21:30 72.1 °F 65.2 °F 29.93 in NNW 1.0 mph 5.0 mph 79% 0.00 in CLR
21:45 72.0 °F 65.1 °F 29.93 in NNW 1.0 mph 4.0 mph 79% 0.00 in CLR
22:00 71.8 °F 65.0 °F 29.93 in NNW 1.0 mph 4.0 mph 79% 0.00 in CLR
22:30 71.6 °F 65.1 °F 29.93 in Calm   4.0 mph 80% 0.00 in CLR
22:45 71.5 °F 65.0 °F 29.93 in Calm   4.0 mph 80% 0.00 in CLR
23:00 71.3 °F 65.1 °F 29.94 in Calm   4.0 mph 81% 0.00 in CLR
23:30 70.9 °F 65.1 °F 29.94 in NNE 1.0 mph 6.0 mph 82% 0.00 in CLR
23:45 70.9 °F 65.5 °F 29.94 in Calm   7.0 mph 83% 0.00 in CLR
TarryTown NY Weather
Compliments of Weather Underground - 1.5 mb